CheckWX is a tool to help pilots better visualize weather data.  It is not intended as a substitute for an official pre-flight weather briefing.

01:47:13 UTC

EGPN METAR
Dundee Airport
Dundee, United Kingdom
Current

5 hours ago

EGPN 192020Z 27011KT 9999 FEW020 15/12 Q1008
Observed
Aug-19 @ 20:20 UTC
Wind
  • 270° at 11 KTS
Visibility
10,000+ meters
Flight Rules
VFR
Cloud Levels
  • Few at 2,000' AGL
Temperature
15°C / 59°F
Dewpoint
12°C / 54°F
Humidity
82%
Altimeter
29.76" Hg
Pressure
1007.92 hPa
Previous

6 hours ago

EGPN 191950Z 26012KT 9999 FEW020 15/12 Q1008
Observed
Aug-19 @ 19:50 UTC
Wind
  • 260° at 12 KTS
Visibility
10,000+ meters
Flight Rules
VFR
Cloud Levels
  • Few at 2,000' AGL
Temperature
15°C / 59°F
Dewpoint
12°C / 54°F
Humidity
82%
Altimeter
29.76" Hg
Pressure
1007.92 hPa
Previous

6 hours ago

EGPN 191920Z 26013KT 9999 FEW020 16/12 Q1008
Observed
Aug-19 @ 19:20 UTC
Wind
  • 260° at 13 KTS
Visibility
10,000+ meters
Flight Rules
VFR
Cloud Levels
  • Few at 2,000' AGL
Temperature
16°C / 61°F
Dewpoint
12°C / 54°F
Humidity
77%
Altimeter
29.76" Hg
Pressure
1007.92 hPa